Time;durP1;ratioP1;P1;durP2;ratioP2;P2;SDS_P1;SDS_P2;PMS_P1;PMS_P2;Temp;Humidity;BMP_temperature;BMP_pressure;BME280_temperature;BME280_humidity;BME280_pressure;Samples;Min_cycle;Max_cycle;Signal;HPM_P1;HPM_P2
2021/05/31 08:03:18;;;;;;;5.05;1.05;;;16.60;44.10;;;;;;5410072;24;20058;-84
2021/05/31 08:05:45;;;;;;;4.63;1.17;;;16.60;43.40;;;;;;4813871;29;20344;-85
2021/05/31 08:08:13;;;;;;;3.95;1.52;;;16.70;43.50;;;;;;4796849;29;20058;-84
2021/05/31 08:10:40;;;;;;;3.08;1.23;;;16.80;42.90;;;;;;4813462;29;20122;-84
2021/05/31 08:13:08;;;;;;;6.22;1.30;;;16.90;43.90;;;;;;4812074;29;20250;-85
2021/05/31 08:15:35;;;;;;;4.18;1.20;;;17.00;43.40;;;;;;4797465;29;20062;-84
2021/05/31 08:18:02;;;;;;;2.00;1.02;;;17.10;44.70;;;;;;4797422;29;20055;-84
2021/05/31 08:20:34;;;;;;;5.65;1.65;;;17.30;43.90;;;;;;4811897;29;20099;-84
2021/05/31 08:23:06;;;;;;;6.38;1.50;;;17.50;43.30;;;;;;4810254;29;20165;-82
2021/05/31 08:25:33;;;;;;;3.00;1.30;;;17.60;43.40;;;;;;4812983;29;20101;-83
2021/05/31 08:28:01;;;;;;;2.95;1.38;;;17.70;42.20;;;;;;4812872;29;20295;-85
2021/05/31 08:30:31;;;;;;;2.55;1.35;;;17.80;42.20;;;;;;4797126;29;20125;-81
2021/05/31 08:32:59;;;;;;;2.67;1.38;;;17.90;41.30;;;;;;4796088;29;20093;-83
2021/05/31 08:35:27;;;;;;;4.07;1.40;;;18.00;41.80;;;;;;4815101;29;20054;-81
2021/05/31 08:37:59;;;;;;;4.47;1.10;;;18.10;41.30;;;;;;4803949;29;20054;-84
2021/05/31 08:40:30;;;;;;;2.35;1.08;;;18.30;41.30;;;;;;4799699;29;20066;-83
2021/05/31 08:42:57;;;;;;;2.22;1.05;;;18.30;40.10;;;;;;4813402;29;20061;-81
2021/05/31 08:45:26;;;;;;;4.03;1.10;;;18.40;40.90;;;;;;4814076;29;20236;-84
2021/05/31 08:47:54;;;;;;;3.95;1.40;;;18.60;39.60;;;;;;4812499;29;20353;-82
2021/05/31 08:50:30;;;;;;;5.10;1.50;;;18.60;39.90;;;;;;4813627;29;20074;-85
2021/05/31 08:52:59;;;;;;;3.58;1.10;;;18.60;40.70;;;;;;4814471;29;20245;-84
2021/05/31 08:55:29;;;;;;;3.50;1.10;;;18.80;39.80;;;;;;4812414;29;20110;-81
2021/05/31 08:57:57;;;;;;;4.03;1.10;;;18.90;40.10;;;;;;4813887;29;20062;-83
2021/05/31 09:00:26;;;;;;;3.22;1.20;;;19.00;39.20;;;;;;4809664;29;20063;-85
2021/05/31 09:02:54;;;;;;;2.47;1.40;;;19.00;39.50;;;;;;4812673;29;20089;-85
2021/05/31 09:05:33;;;;;;;3.80;1.23;;;19.10;39.30;;;;;;4405778;29;10000500;-84
2021/05/31 09:08:06;;;;;;;2.90;1.50;;;19.20;38.60;;;;;;1326516;29;10002162;-85
2021/05/31 09:10:41;;;;;;;3.97;1.75;;;19.30;39.70;;;;;;4812729;29;20051;-84
2021/05/31 09:13:08;;;;;;;1.63;0.80;;;19.30;39.00;;;;;;4797719;29;20271;-84
2021/05/31 09:15:35;;;;;;;5.38;1.38;;;19.40;39.10;;;;;;4806163;29;20077;-84
2021/05/31 09:18:05;;;;;;;2.80;1.35;;;19.50;39.80;;;;;;4798885;29;20267;-83
2021/05/31 09:20:34;;;;;;;3.95;1.35;;;19.60;38.50;;;;;;4801423;29;20150;-82
2021/05/31 09:23:03;;;;;;;3.67;1.15;;;19.70;38.60;;;;;;4814016;29;20050;-85
2021/05/31 09:25:34;;;;;;;3.90;1.58;;;19.60;38.60;;;;;;4814515;29;20055;-84
2021/05/31 09:28:04;;;;;;;4.60;1.55;;;19.60;38.60;;;;;;4814098;29;20270;-84
2021/05/31 09:30:37;;;;;;;3.70;1.50;;;19.80;38.20;;;;;;4798397;29;20051;-84
2021/05/31 09:33:08;;;;;;;3.45;1.00;;;19.80;38.80;;;;;;4785882;29;20137;-85
2021/05/31 09:35:38;;;;;;;5.30;1.60;;;20.00;39.70;;;;;;4802295;29;20055;-84
2021/05/31 09:38:06;;;;;;;3.67;1.27;;;20.10;38.10;;;;;;4817047;29;20074;-84
2021/05/31 09:40:35;;;;;;;6.97;1.50;;;20.10;38.00;;;;;;4804414;29;20063;-82
2021/05/31 09:43:07;;;;;;;5.80;1.67;;;20.10;38.10;;;;;;4815206;29;20050;-84
2021/05/31 09:45:34;;;;;;;2.90;1.33;;;20.20;38.40;;;;;;4797500;29;20311;-82
2021/05/31 09:48:02;;;;;;;2.25;1.17;;;20.30;38.40;;;;;;4794473;29;20112;-81
2021/05/31 09:50:31;;;;;;;4.40;1.27;;;20.30;37.40;;;;;;4800067;29;20043;-82
2021/05/31 09:53:16;;;;;;;5.35;1.77;;;20.50;38.40;;;;;;4798317;29;20054;-83
2021/05/31 09:55:46;;;;;;;5.05;1.52;;;20.60;37.30;;;;;;4814562;29;20075;-83
2021/05/31 09:58:15;;;;;;;3.20;1.17;;;20.70;38.30;;;;;;4804610;29;20092;-83
2021/05/31 10:00:46;;;;;;;3.25;1.83;;;20.80;36.70;;;;;;4802139;29;20059;-82
2021/05/31 10:03:23;;;;;;;3.50;1.30;;;21.10;35.70;;;;;;4813735;29;20067;-84
2021/05/31 10:06:01;;;;;;;3.28;1.05;;;21.10;36.00;;;;;;4814266;29;20365;-83
2021/05/31 10:08:43;;;;;;;5.45;1.23;;;21.20;36.20;;;;;;4798906;29;20049;-83
2021/05/31 10:11:14;;;;;;;4.43;1.48;;;21.70;35.80;;;;;;4793273;29;20062;-82
2021/05/31 10:13:42;;;;;;;9.48;1.30;;;22.10;34.70;;;;;;4812028;29;20120;-82
2021/05/31 10:16:10;;;;;;;5.15;1.10;;;22.30;34.70;;;;;;4811806;29;20159;-83
2021/05/31 10:18:41;;;;;;;3.65;1.02;;;22.70;34.00;;;;;;4813064;29;20138;-81
2021/05/31 10:21:12;;;;;;;6.32;2.00;;;23.30;32.40;;;;;;4797579;29;20066;-83
2021/05/31 10:23:39;;;;;;;5.10;1.52;;;23.90;31.60;;;;;;4807227;29;20058;-84
2021/05/31 10:26:10;;;;;;;3.97;1.98;;;24.70;30.60;;;;;;4797523;29;20069;-81
2021/05/31 10:28:42;;;;;;;2.40;1.23;;;24.40;30.40;;;;;;4813497;29;20299;-85
2021/05/31 10:31:11;;;;;;;2.75;1.10;;;23.50;31.90;;;;;;4811342;29;20065;-83
2021/05/31 10:33:38;;;;;;;2.70;1.20;;;23.50;31.80;;;;;;4813421;29;20074;-83
2021/05/31 10:36:16;;;;;;;4.00;1.30;;;25.30;29.50;;;;;;4814961;29;20350;-82
2021/05/31 10:38:46;;;;;;;3.72;1.20;;;26.60;27.70;;;;;;4816134;29;20050;-84
2021/05/31 10:41:15;;;;;;;5.45;1.67;;;28.00;26.30;;;;;;4814544;29;20082;-85
2021/05/31 10:43:47;;;;;;;4.57;1.48;;;28.90;25.40;;;;;;4807500;29;20047;-85
2021/05/31 10:46:18;;;;;;;3.50;1.20;;;29.70;24.10;;;;;;4801090;29;20135;-85
2021/05/31 10:48:49;;;;;;;3.13;1.35;;;29.90;24.40;;;;;;4798708;29;20127;-83
2021/05/31 10:51:19;;;;;;;3.42;1.20;;;29.90;23.30;;;;;;4814613;29;20055;-86
2021/05/31 10:53:46;;;;;;;3.83;1.33;;;30.50;23.50;;;;;;4810904;29;20059;-86
2021/05/31 10:56:24;;;;;;;2.30;1.23;;;30.90;22.80;;;;;;4814546;29;20061;-85
2021/05/31 10:58:54;;;;;;;5.05;1.27;;;28.80;24.20;;;;;;4813470;29;20061;-86
2021/05/31 11:01:37;;;;;;;2.35;1.10;;;28.00;25.00;;;;;;4796202;29;20081;-85
2021/05/31 11:04:07;;;;;;;2.53;1.30;;;27.60;26.20;;;;;;4814598;29;20059;-84
2021/05/31 11:06:42;;;;;;;2.05;0.98;;;29.70;23.70;;;;;;4814227;29;20065;-84
2021/05/31 11:09:11;;;;;;;2.95;1.23;;;30.60;22.50;;;;;;4813019;29;20055;-85
2021/05/31 11:11:40;;;;;;;;;;;28.70;23.90;;;;;;4800483;29;20062;-82
2021/05/31 11:14:10;;;;;;;4.13;1.10;;;29.80;23.60;;;;;;4815277;29;19968;-83
2021/05/31 11:16:54;;;;;;;2.13;1.08;;;30.50;22.40;;;;;;4813497;29;20058;-82
2021/05/31 11:19:36;;;;;;;2.88;1.13;;;28.60;24.20;;;;;;4815756;29;20058;-84
2021/05/31 11:22:13;;;;;;;3.05;1.10;;;30.30;23.50;;;;;;4804903;29;20086;-81
2021/05/31 11:24:50;;;;;;;4.53;1.52;;;31.80;22.60;;;;;;4811799;29;20145;-81
2021/05/31 11:27:17;;;;;;;3.70;1.30;;;32.90;20.70;;;;;;4814272;29;20062;-82
2021/05/31 11:29:45;;;;;;;3.03;1.15;;;33.60;19.30;;;;;;4797917;29;20051;-83
2021/05/31 11:32:28;;;;;;;3.43;1.20;;;33.70;18.70;;;;;;4812916;29;20058;-82
2021/05/31 11:34:55;;;;;;;3.75;1.20;;;34.00;18.50;;;;;;4795352;29;20066;-80
2021/05/31 11:37:30;;;;;;;2.30;1.25;;;33.30;20.20;;;;;;4794280;29;20082;-83
2021/05/31 11:40:00;;;;;;;7.78;1.30;;;34.60;18.40;;;;;;4793783;29;20061;-83
2021/05/31 11:42:45;;;;;;;3.67;1.13;;;34.90;17.80;;;;;;4808337;29;20055;-85
2021/05/31 11:45:24;;;;;;;3.67;1.15;;;35.30;17.40;;;;;;4810045;29;20238;-83
2021/05/31 11:47:57;;;;;;;3.08;1.02;;;35.30;17.30;;;;;;4797503;29;20050;-83
2021/05/31 11:50:26;;;;;;;4.80;1.65;;;35.20;17.60;;;;;;4798089;29;20054;-83
2021/05/31 11:52:54;;;;;;;;;;;35.70;16.80;;;;;;4813789;29;20185;-84
2021/05/31 11:55:25;;;;;;;;;;;35.60;17.10;;;;;;4814103;29;19971;-84
2021/05/31 11:57:55;;;;;;;1.70;0.90;;;36.00;16.60;;;;;;4813878;29;20271;-85
2021/05/31 12:00:25;;;;;;;3.28;1.27;;;37.20;16.50;;;;;;4792051;29;20233;-84
2021/05/31 12:02:53;;;;;;;2.85;1.10;;;37.40;15.90;;;;;;4820628;29;20063;-81
2021/05/31 12:05:33;;;;;;;1.27;0.93;;;37.30;15.60;;;;;;4809217;29;20061;-84
2021/05/31 12:08:06;;;;;;;3.00;1.20;;;36.00;16.40;;;;;;4813121;29;20296;-84
2021/05/31 12:10:34;;;;;;;2.58;1.13;;;34.10;17.50;;;;;;4811544;29;20065;-84
2021/05/31 12:13:03;;;;;;;1.30;0.82;;;36.00;17.10;;;;;;4810267;29;20513;-86
2021/05/31 12:15:36;;;;;;;2.95;1.25;;;37.20;15.80;;;;;;4825216;29;20118;-84
2021/05/31 12:18:13;;;;;;;2.97;1.20;;;37.30;15.60;;;;;;4812784;29;20253;-84
2021/05/31 12:20:44;;;;;;;2.20;0.90;;;36.50;15.30;;;;;;4821576;29;20075;-83
2021/05/31 12:23:28;;;;;;;5.15;1.02;;;36.80;15.80;;;;;;4812057;29;20361;-83
2021/05/31 12:26:00;;;;;;;2.42;1.02;;;36.20;15.20;;;;;;4817972;29;20087;-82
2021/05/31 12:28:31;;;;;;;2.42;1.00;;;36.00;15.80;;;;;;4807317;29;20117;-84
2021/05/31 12:31:02;;;;;;;4.82;1.30;;;36.90;15.20;;;;;;4806286;29;20047;-86
2021/05/31 12:33:38;;;;;;;2.42;0.90;;;37.60;14.80;;;;;;4805755;29;20055;-86
2021/05/31 12:36:07;;;;;;;2.08;1.00;;;38.10;15.00;;;;;;4819186;29;20059;-84
2021/05/31 12:38:34;;;;;;;3.25;0.90;;;39.60;13.50;;;;;;4811760;29;20138;-84
2021/05/31 12:41:01;;;;;;;2.65;1.00;;;39.70;13.00;;;;;;4826266;29;20066;-84
2021/05/31 12:43:41;;;;;;;7.82;2.45;;;39.20;13.00;;;;;;4812778;29;20055;-86
2021/05/31 12:46:17;;;;;;;3.35;1.33;;;39.10;14.20;;;;;;4814448;29;20066;-84
2021/05/31 12:48:48;;;;;;;3.72;1.10;;;39.40;13.20;;;;;;4814023;29;20054;-83
2021/05/31 12:51:15;;;;;;;4.50;1.13;;;39.40;12.90;;;;;;4814114;29;20066;-83
2021/05/31 12:53:45;;;;;;;3.03;1.20;;;38.90;13.50;;;;;;4814789;29;20062;-84
2021/05/31 12:56:12;;;;;;;5.70;1.05;;;38.80;12.80;;;;;;4815350;29;20065;-79
2021/05/31 12:58:39;;;;;;;1.77;0.82;;;38.30;14.30;;;;;;4815471;29;20063;-83
2021/05/31 13:01:10;;;;;;;2.90;1.20;;;38.70;12.90;;;;;;4808353;29;20055;-81
2021/05/31 13:03:38;;;;;;;1.65;0.88;;;39.00;13.10;;;;;;4803540;29;20055;-83
2021/05/31 13:06:06;;;;;;;1.92;1.13;;;39.40;12.70;;;;;;4818076;29;20081;-81
2021/05/31 13:08:38;;;;;;;4.55;1.00;;;39.20;13.70;;;;;;4817460;29;20066;-82
2021/05/31 13:11:05;;;;;;;1.92;1.00;;;39.20;13.80;;;;;;4818404;29;20122;-81
2021/05/31 13:13:34;;;;;;;1.75;0.80;;;39.30;13.20;;;;;;4816927;29;20062;-82
2021/05/31 13:16:04;;;;;;;1.65;1.00;;;39.00;12.90;;;;;;4815779;29;20062;-81
2021/05/31 13:18:32;;;;;;;2.85;0.88;;;38.90;13.40;;;;;;4817492;29;20100;-84
2021/05/31 13:21:07;;;;;;;;;;;38.80;13.80;;;;;;4816823;29;20099;-84
2021/05/31 13:23:37;;;;;;;1.45;0.80;;;38.70;13.70;;;;;;4817355;29;20031;-84
2021/05/31 13:26:11;;;;;;;3.13;0.93;;;39.60;13.70;;;;;;4818900;29;20050;-82
2021/05/31 13:28:41;;;;;;;3.65;1.08;;;39.60;12.70;;;;;;4810336;29;20086;-86
2021/05/31 13:31:13;;;;;;;2.13;0.98;;;39.60;12.80;;;;;;4813013;29;20088;-84
2021/05/31 13:33:43;;;;;;;2.65;0.93;;;39.00;13.10;;;;;;4810967;29;20046;-83
2021/05/31 13:36:18;;;;;;;1.52;0.88;;;38.90;13.00;;;;;;4814168;29;20230;-84
2021/05/31 13:38:45;;;;;;;1.80;0.70;;;39.20;13.30;;;;;;4798484;29;20141;-83
2021/05/31 13:41:12;;;;;;;1.55;0.90;;;39.30;12.30;;;;;;4814123;29;20046;-85
2021/05/31 13:43:39;;;;;;;2.45;1.08;;;39.60;12.40;;;;;;4815092;29;20069;-80
2021/05/31 13:46:07;;;;;;;2.22;1.17;;;39.60;13.30;;;;;;4814372;29;20066;-87
2021/05/31 13:48:35;;;;;;;2.85;1.02;;;39.40;14.00;;;;;;4811342;29;20109;-85
2021/05/31 13:51:04;;;;;;;4.78;0.90;;;39.60;13.40;;;;;;4804904;29;20109;-79
2021/05/31 13:53:32;;;;;;;2.75;0.98;;;39.10;12.90;;;;;;4797842;29;20063;-83
2021/05/31 13:55:59;;;;;;;3.90;1.80;;;38.50;13.40;;;;;;4811303;29;20075;-84
2021/05/31 13:58:32;;;;;;;2.65;1.00;;;38.70;13.70;;;;;;4812841;29;20068;-84
2021/05/31 14:00:59;;;;;;;3.28;1.00;;;38.90;13.40;;;;;;4798738;29;20128;-84
2021/05/31 14:03:27;;;;;;;3.17;1.27;;;39.00;13.80;;;;;;4814359;29;20065;-84
2021/05/31 14:05:55;;;;;;;3.33;1.30;;;39.10;14.20;;;;;;4799968;29;20329;-84
2021/05/31 14:08:22;;;;;;;3.17;1.13;;;38.70;14.20;;;;;;4789372;29;20058;-83
2021/05/31 14:10:51;;;;;;;3.13;0.80;;;39.80;13.40;;;;;;4809917;29;20055;-84
2021/05/31 14:13:19;;;;;;;3.70;1.00;;;39.90;13.00;;;;;;4813360;29;20316;-83
2021/05/31 14:15:46;;;;;;;3.20;1.10;;;39.50;13.30;;;;;;4784931;29;20111;-85
2021/05/31 14:18:14;;;;;;;2.55;1.02;;;38.70;13.90;;;;;;4814235;29;20069;-82
2021/05/31 14:20:44;;;;;;;2.00;0.80;;;37.90;14.10;;;;;;4811636;29;20360;-83
2021/05/31 14:23:11;;;;;;;2.95;0.85;;;38.40;14.20;;;;;;4813466;29;20058;-85
2021/05/31 14:25:38;;;;;;;2.10;1.17;;;38.20;14.50;;;;;;4811692;29;20103;-84
2021/05/31 14:28:07;;;;;;;6.40;1.02;;;39.10;13.70;;;;;;4811594;29;20082;-83
2021/05/31 14:30:35;;;;;;;2.45;1.10;;;38.90;13.40;;;;;;4800143;29;20070;-84
2021/05/31 14:33:06;;;;;;;2.63;1.20;;;39.00;13.50;;;;;;4798995;29;20238;-85
2021/05/31 14:35:35;;;;;;;1.67;1.00;;;39.00;14.00;;;;;;4798942;29;20046;-81
2021/05/31 14:38:04;;;;;;;3.63;1.00;;;38.70;14.00;;;;;;4805785;29;20059;-83
2021/05/31 14:40:34;;;;;;;2.80;1.10;;;39.90;13.20;;;;;;4802167;29;20054;-82
2021/05/31 14:43:01;;;;;;;1.98;1.02;;;38.80;13.40;;;;;;4793233;29;20051;-83
2021/05/31 14:45:32;;;;;;;2.08;0.93;;;38.70;13.40;;;;;;4813390;29;20130;-83
2021/05/31 14:47:59;;;;;;;2.92;1.08;;;38.80;13.50;;;;;;4815244;29;20275;-84
2021/05/31 14:50:28;;;;;;;4.93;1.10;;;38.70;14.70;;;;;;4798826;29;20058;-83
2021/05/31 14:52:56;;;;;;;2.63;1.00;;;38.50;14.10;;;;;;4814777;29;20253;-84
2021/05/31 14:55:23;;;;;;;2.17;1.25;;;38.10;13.90;;;;;;4814040;29;20122;-81
2021/05/31 14:57:51;;;;;;;1.80;0.90;;;38.50;14.10;;;;;;4814690;29;20089;-84
2021/05/31 15:00:21;;;;;;;1.52;0.80;;;38.70;13.70;;;;;;4810692;29;20062;-85
2021/05/31 15:02:50;;;;;;;1.58;0.98;;;39.10;13.60;;;;;;4798619;29;20125;-81
2021/05/31 15:05:18;;;;;;;1.90;0.90;;;39.20;13.20;;;;;;4823235;29;20100;-84
2021/05/31 15:07:46;;;;;;;3.35;1.20;;;38.90;13.70;;;;;;4811863;29;20046;-84
2021/05/31 15:10:15;;;;;;;3.90;1.00;;;38.70;13.70;;;;;;4811490;29;20091;-85
2021/05/31 15:12:44;;;;;;;4.50;1.20;;;39.20;13.80;;;;;;4807139;29;20230;-83
2021/05/31 15:15:12;;;;;;;1.45;0.80;;;39.00;13.50;;;;;;4811071;29;20067;-84
2021/05/31 15:17:40;;;;;;;1.70;0.80;;;39.10;13.90;;;;;;4813200;29;20107;-85
2021/05/31 15:20:09;;;;;;;2.15;1.05;;;38.90;13.90;;;;;;4819890;29;20062;-85
2021/05/31 15:22:37;;;;;;;1.88;1.05;;;39.10;13.30;;;;;;4813013;29;20082;-84
2021/05/31 15:25:06;;;;;;;1.97;1.07;;;39.50;13.30;;;;;;4812894;29;20054;-83
2021/05/31 15:27:33;;;;;;;3.50;1.77;;;39.80;13.40;;;;;;4811076;29;20371;-84
2021/05/31 15:30:00;;;;;;;2.22;1.20;;;40.20;13.40;;;;;;4812270;29;20099;-83
2021/05/31 15:32:41;;;;;;;3.13;1.52;;;39.90;13.10;;;;;;4806068;29;20047;-83
2021/05/31 15:35:10;;;;;;;2.13;1.10;;;39.60;12.80;;;;;;4808282;29;20078;-85
2021/05/31 15:37:37;;;;;;;1.33;1.10;;;39.80;13.40;;;;;;4810002;29;20134;-82
2021/05/31 15:40:07;;;;;;;1.40;0.82;;;40.20;13.20;;;;;;4807566;29;20054;-83
2021/05/31 15:42:34;;;;;;;2.25;1.02;;;40.10;12.90;;;;;;4811548;29;20098;-85
2021/05/31 15:45:02;;;;;;;3.13;0.98;;;39.10;13.40;;;;;;4810573;29;20066;-82
2021/05/31 15:47:29;;;;;;;3.38;0.93;;;39.00;13.50;;;;;;4811376;29;20054;-83
2021/05/31 15:49:56;;;;;;;2.90;1.30;;;38.80;13.80;;;;;;4803709;29;20103;-82
2021/05/31 15:52:25;;;;;;;1.40;0.85;;;38.40;13.80;;;;;;4810719;29;20065;-81
2021/05/31 15:54:52;;;;;;;2.88;1.30;;;38.70;14.70;;;;;;4800099;29;20086;-84
2021/05/31 15:57:19;;;;;;;2.85;1.20;;;38.80;14.00;;;;;;4820162;29;20080;-82
2021/05/31 15:59:46;;;;;;;1.10;0.82;;;38.50;14.00;;;;;;4810136;29;20248;-82
2021/05/31 16:02:13;;;;;;;3.15;1.10;;;38.70;13.80;;;;;;4806466;29;20127;-83
2021/05/31 16:04:40;;;;;;;2.47;1.17;;;38.80;14.80;;;;;;4811786;29;20077;-85
2021/05/31 16:07:08;;;;;;;1.73;0.90;;;38.40;14.30;;;;;;4805937;29;20054;-84
2021/05/31 16:09:36;;;;;;;;;;;39.20;13.50;;;;;;4814057;29;20074;-83
2021/05/31 16:12:06;;;;;;;1.80;1.00;;;37.80;14.10;;;;;;4797752;29;19921;-83
2021/05/31 16:14:34;;;;;;;2.75;1.13;;;35.70;15.10;;;;;;4796887;29;20047;-82
2021/05/31 16:17:04;;;;;;;2.42;0.90;;;35.10;16.00;;;;;;4784547;29;20062;-84
2021/05/31 16:19:31;;;;;;;2.17;1.00;;;35.60;15.50;;;;;;4814419;29;20055;-84
2021/05/31 16:21:58;;;;;;;2.50;0.85;;;33.50;17.10;;;;;;4804731;29;20058;-82
2021/05/31 16:24:27;;;;;;;2.20;1.00;;;32.80;18.00;;;;;;4796721;29;20058;-84
2021/05/31 16:26:56;;;;;;;3.67;1.15;;;33.20;17.70;;;;;;4813833;29;20054;-82
2021/05/31 16:29:23;;;;;;;3.33;1.00;;;33.00;18.30;;;;;;4795738;29;20069;-84
2021/05/31 16:31:51;;;;;;;2.40;1.00;;;31.20;19.70;;;;;;4795136;29;20085;-84
2021/05/31 16:34:18;;;;;;;2.27;1.10;;;30.10;21.40;;;;;;4812136;29;20122;-82
2021/05/31 16:36:45;;;;;;;1.70;0.98;;;30.30;22.40;;;;;;4799148;29;20063;-85
2021/05/31 16:39:12;;;;;;;2.17;1.00;;;30.00;21.70;;;;;;4781310;29;20374;-81
2021/05/31 16:44:28;;;;;;;2.30;1.15;;;31.50;20.30;;;;;;4774437;30;20075;-81
2021/05/31 16:46:58;;;;;;;4.43;1.20;;;30.40;21.40;;;;;;4777058;30;20052;-83
2021/05/31 16:49:25;;;;;;;2.42;0.82;;;29.20;21.90;;;;;;4757941;30;20315;-81
2021/05/31 16:51:52;;;;;;;2.13;1.10;;;28.20;22.80;;;;;;4775395;30;20059;-80
2021/05/31 16:54:19;;;;;;;2.03;0.90;;;27.80;23.90;;;;;;4777792;30;20059;-82
2021/05/31 16:56:46;;;;;;;3.28;0.93;;;27.10;25.00;;;;;;4777414;30;20070;-85
2021/05/31 16:59:15;;;;;;;1.70;0.90;;;26.50;26.50;;;;;;4775418;30;20250;-80
2021/05/31 17:01:45;;;;;;;3.65;1.20;;;27.70;24.60;;;;;;4753839;30;20143;-83
2021/05/31 17:04:13;;;;;;;2.75;0.90;;;29.20;22.70;;;;;;4755669;30;20076;-82
2021/05/31 17:06:43;;;;;;;1.50;0.80;;;30.20;21.80;;;;;;4778140;30;20086;-83
2021/05/31 17:09:12;;;;;;;1.83;0.90;;;30.40;22.00;;;;;;4769917;30;20050;-82
2021/05/31 17:19:58;;;;;;;2.40;0.90;;;31.50;19.50;;;;;;4773726;30;20063;-81
2021/05/31 17:22:28;;;;;;;1.38;0.90;;;31.40;20.20;;;;;;4755844;30;20342;-81
2021/05/31 17:24:56;;;;;;;2.57;1.03;;;31.40;19.80;;;;;;4759237;30;20059;-82
2021/05/31 17:27:23;;;;;;;5.05;1.23;;;32.20;18.90;;;;;;4776748;30;20063;-84
2021/05/31 17:29:52;;;;;;;1.90;0.90;;;32.00;18.90;;;;;;4761008;30;20063;-84
2021/05/31 17:32:30;;;;;;;1.17;0.90;;;30.60;20.20;;;;;;4765647;30;20052;-80
2021/05/31 17:35:00;;;;;;;3.83;0.90;;;29.90;20.70;;;;;;4780745;30;20059;-83
2021/05/31 17:37:29;;;;;;;2.35;0.88;;;30.00;21.10;;;;;;4762351;30;20112;-81
2021/05/31 17:40:01;;;;;;;4.78;1.00;;;30.30;21.40;;;;;;4778127;30;20064;-83
2021/05/31 17:42:30;;;;;;;2.28;0.77;;;31.10;20.60;;;;;;4777278;30;20234;-83
2021/05/31 17:44:57;;;;;;;3.00;1.38;;;30.00;20.70;;;;;;4763756;30;20071;-84
2021/05/31 17:47:27;;;;;;;1.63;1.10;;;29.80;21.10;;;;;;4780817;30;20067;-81
2021/05/31 17:49:56;;;;;;;1.42;0.75;;;30.30;21.10;;;;;;4776079;30;20068;-84
2021/05/31 17:52:24;;;;;;;1.48;0.80;;;30.00;20.90;;;;;;4784508;30;20056;-84
2021/05/31 17:54:52;;;;;;;3.47;0.85;;;29.60;21.30;;;;;;4783831;30;20055;-81
2021/05/31 17:57:20;;;;;;;3.35;0.80;;;28.70;21.90;;;;;;4784357;30;20059;-82
2021/05/31 17:59:47;;;;;;;3.00;0.88;;;27.10;24.00;;;;;;4768255;30;20110;-81
2021/05/31 18:02:14;;;;;;;4.10;0.85;;;26.50;25.30;;;;;;4766338;30;20059;-82
2021/05/31 18:04:43;;;;;;;2.67;0.90;;;26.40;25.00;;;;;;4767435;30;20234;-82
2021/05/31 18:07:11;;;;;;;2.85;1.10;;;25.50;26.30;;;;;;4766154;30;20127;-80
2021/05/31 18:09:46;;;;;;;3.30;1.02;;;24.60;27.20;;;;;;4783599;30;20079;-82
2021/05/31 18:12:19;;;;;;;2.08;0.95;;;24.20;27.60;;;;;;4785165;30;20097;-83
2021/05/31 18:18:06;;;;;;;3.90;0.90;;;23.70;28.70;;;;;;4754816;30;20059;-84
2021/05/31 18:20:35;;;;;;;1.95;0.90;;;23.20;29.60;;;;;;4776473;30;20048;-82
2021/05/31 18:23:02;;;;;;;2.77;0.90;;;23.10;30.50;;;;;;4779395;30;20062;-85
2021/05/31 18:25:29;;;;;;;3.03;1.00;;;22.90;31.60;;;;;;4779236;30;20418;-82
2021/05/31 18:27:56;;;;;;;2.58;1.20;;;22.70;33.20;;;;;;4763431;30;20074;-83
2021/05/31 18:30:25;;;;;;;2.50;0.90;;;22.70;32.60;;;;;;4763797;30;20063;-83
2021/05/31 18:32:56;;;;;;;4.05;1.00;;;22.60;32.80;;;;;;4780624;30;20347;-84
2021/05/31 18:35:28;;;;;;;3.97;1.25;;;22.40;33.40;;;;;;4781874;30;20082;-83
2021/05/31 18:37:56;;;;;;;3.10;1.40;;;22.20;32.80;;;;;;4766036;30;20126;-83
2021/05/31 18:40:23;;;;;;;1.98;0.95;;;22.10;33.40;;;;;;4779847;30;20063;-82
2021/05/31 18:42:51;;;;;;;1.95;0.80;;;22.00;35.30;;;;;;4765502;30;20056;-82
2021/05/31 18:45:19;;;;;;;3.65;1.80;;;21.90;34.10;;;;;;4779764;30;20398;-81
2021/05/31 18:47:47;;;;;;;2.70;1.10;;;21.60;33.80;;;;;;4779450;30;20239;-83
2021/05/31 18:50:19;;;;;;;3.58;0.80;;;21.50;35.20;;;;;;4783294;30;20075;-84
2021/05/31 18:52:49;;;;;;;1.20;0.70;;;21.20;35.70;;;;;;4750667;30;20246;-82
2021/05/31 18:55:18;;;;;;;2.03;1.02;;;21.20;37.50;;;;;;4779151;30;20059;-84
2021/05/31 18:57:46;;;;;;;2.20;1.08;;;21.10;36.90;;;;;;4780610;30;20406;-84
2021/05/31 19:00:14;;;;;;;3.38;1.13;;;21.00;37.70;;;;;;4776491;30;20044;-82
2021/05/31 19:02:41;;;;;;;2.30;0.95;;;20.60;38.10;;;;;;4780158;30;20266;-82
2021/05/31 19:05:12;;;;;;;5.20;1.30;;;20.40;38.90;;;;;;4762194;30;20071;-82
2021/05/31 19:07:39;;;;;;;5.03;1.02;;;20.20;40.20;;;;;;4762716;30;20136;-85
2021/05/31 19:10:08;;;;;;;2.67;1.20;;;19.90;41.00;;;;;;4780114;30;20059;-83
2021/05/31 19:12:36;;;;;;;2.10;0.93;;;19.60;41.80;;;;;;4773672;30;20083;-85
2021/05/31 19:15:06;;;;;;;1.63;1.02;;;19.40;45.20;;;;;;4773339;30;20106;-79
2021/05/31 19:17:33;;;;;;;3.35;1.05;;;19.20;46.10;;;;;;4749126;30;20059;-84
2021/05/31 19:20:26;;;;;;;6.40;1.17;;;19.00;46.20;;;;;;4762545;30;20269;-83
2021/05/31 19:22:53;;;;;;;1.75;1.00;;;18.90;46.70;;;;;;4764147;30;20238;-80
2021/05/31 19:25:25;;;;;;;1.65;0.93;;;18.60;47.20;;;;;;4777550;30;20111;-84
2021/05/31 19:28:05;;;;;;;3.58;1.20;;;18.40;48.30;;;;;;4777783;30;20063;-81
2021/05/31 19:30:34;;;;;;;3.78;1.30;;;18.20;49.30;;;;;;4774305;30;20044;-82
2021/05/31 19:33:01;;;;;;;5.20;1.30;;;18.00;50.10;;;;;;4775409;30;20060;-78
2021/05/31 19:35:29;;;;;;;2.70;1.20;;;17.80;51.00;;;;;;4761574;30;20059;-80
2021/05/31 19:37:56;;;;;;;3.08;1.20;;;17.60;51.00;;;;;;4761715;30;20426;-83
2021/05/31 19:40:26;;;;;;;4.20;1.30;;;17.50;50.80;;;;;;4760662;30;20063;-84
2021/05/31 19:42:54;;;;;;;3.45;1.13;;;17.40;51.50;;;;;;4757958;30;20059;-84
2021/05/31 19:45:24;;;;;;;5.03;1.20;;;17.20;52.10;;;;;;4778153;30;20085;-84
2021/05/31 19:47:54;;;;;;;;;;;17.10;52.10;;;;;;4759015;30;20307;-84
2021/05/31 19:50:23;;;;;;;2.80;1.10;;;16.80;52.90;;;;;;4779760;30;19929;-81
2021/05/31 19:52:50;;;;;;;1.95;1.05;;;16.70;53.10;;;;;;4749729;30;20068;-84
2021/05/31 19:55:32;;;;;;;3.85;1.08;;;16.50;53.60;;;;;;4751964;30;20052;-83
2021/05/31 20:00:49;;;;;;;2.92;1.00;;;16.30;54.10;;;;;;4743299;30;20161;-84
2021/05/31 20:03:16;;;;;;;3.63;1.85;;;16.20;54.50;;;;;;4777396;30;20055;-85
2021/05/31 20:05:44;;;;;;;4.38;2.15;;;16.10;54.70;;;;;;4780902;30;20066;-83
2021/05/31 20:08:11;;;;;;;7.57;2.53;;;16.00;55.30;;;;;;4780619;30;20598;-83
2021/05/31 20:10:39;;;;;;;5.20;2.53;;;15.90;55.80;;;;;;4758847;30;20059;-84
2021/05/31 20:13:09;;;;;;;5.22;2.53;;;15.80;56.00;;;;;;4763750;30;20115;-85
2021/05/31 20:15:36;;;;;;;4.10;2.08;;;15.70;56.20;;;;;;4776282;30;20059;-83
2021/05/31 20:18:05;;;;;;;5.13;2.70;;;15.70;55.80;;;;;;4778526;30;20083;-79
2021/05/31 20:20:35;;;;;;;4.18;2.33;;;15.60;57.10;;;;;;4776143;30;20055;-82
2021/05/31 20:23:07;;;;;;;3.90;1.88;;;15.50;57.60;;;;;;4760224;30;20247;-81
2021/05/31 20:25:35;;;;;;;6.55;1.30;;;15.40;57.20;;;;;;4777639;30;20043;-85
2021/05/31 20:28:06;;;;;;;4.53;1.20;;;15.40;58.00;;;;;;4775468;30;20366;-83
2021/05/31 20:30:33;;;;;;;2.40;1.27;;;15.20;58.20;;;;;;4774550;30;20083;-81
2021/05/31 20:33:03;;;;;;;4.85;1.48;;;15.20;58.50;;;;;;4777427;30;20051;-80
2021/05/31 20:35:35;;;;;;;6.47;1.70;;;15.00;58.30;;;;;;4775541;30;20051;-83
2021/05/31 20:38:03;;;;;;;2.92;1.42;;;14.90;58.50;;;;;;4776669;30;20150;-82
2021/05/31 20:40:33;;;;;;;3.67;1.10;;;14.80;59.00;;;;;;4768988;30;20147;-83
2021/05/31 20:43:00;;;;;;;3.35;1.20;;;14.80;59.10;;;;;;4776322;30;20064;-83
2021/05/31 20:45:32;;;;;;;2.95;1.17;;;14.70;59.20;;;;;;4757964;30;20051;-81
2021/05/31 20:48:04;;;;;;;3.10;1.02;;;14.60;59.70;;;;;;4774762;30;20122;-82
2021/05/31 20:50:36;;;;;;;3.13;1.25;;;14.60;59.80;;;;;;4761521;30;20079;-81
2021/05/31 20:53:04;;;;;;;4.38;1.25;;;14.50;59.90;;;;;;4776933;30;20075;-83
2021/05/31 20:55:32;;;;;;;2.45;1.30;;;14.50;59.90;;;;;;4775769;30;20054;-82
2021/05/31 20:58:07;;;;;;;3.50;1.60;;;14.40;60.10;;;;;;4776974;30;20051;-81
2021/05/31 21:00:35;;;;;;;5.60;1.60;;;14.40;60.20;;;;;;4754394;30;20060;-84
2021/05/31 21:03:02;;;;;;;4.72;1.90;;;14.30;60.80;;;;;;4755340;30;20063;-84
2021/05/31 21:05:29;;;;;;;3.55;1.45;;;14.20;61.20;;;;;;4754445;30;20126;-82
2021/05/31 21:08:00;;;;;;;3.08;1.83;;;14.10;61.20;;;;;;4758226;30;20055;-83
2021/05/31 21:10:35;;;;;;;5.88;2.28;;;14.10;61.40;;;;;;4773820;30;20101;-82
2021/05/31 21:13:06;;;;;;;3.47;1.65;;;14.00;62.70;;;;;;4773065;30;20067;-80
2021/05/31 21:15:37;;;;;;;3.22;1.60;;;13.80;63.10;;;;;;4772888;30;20323;-82
2021/05/31 21:18:06;;;;;;;2.65;1.30;;;13.70;63.40;;;;;;4773745;30;20055;-81
2021/05/31 21:20:41;;;;;;;3.33;1.53;;;13.70;63.60;;;;;;4756631;30;20082;-81